Time;durP1;ratioP1;P1;durP2;ratioP2;P2;SDS_P1;SDS_P2;PMS_P1;PMS_P2;Temp;Humidity;BMP_temperature;BMP_pressure;BME280_temperature;BME280_humidity;BME280_pressure;Samples;Min_cycle;Max_cycle;Signal;HPM_P1;HPM_P2
2021/09/04 00:00:13;;;;;;;5.53;3.33;;;;;;;23.51;55.15;100162.78;4959797;28;20077;-71
2021/09/04 00:02:43;;;;;;;4.20;3.42;;;;;;;23.53;56.13;100169.59;4960274;28;20430;-70
2021/09/04 00:05:14;;;;;;;3.80;3.50;;;;;;;23.49;57.23;100176.66;4959928;28;20046;-70
2021/09/04 00:07:42;;;;;;;3.53;3.08;;;;;;;23.50;57.85;100166.88;4959639;28;20030;-71
2021/09/04 00:10:11;;;;;;;3.92;2.63;;;;;;;23.46;58.49;100158.47;4959654;28;20088;-70
2021/09/04 00:12:42;;;;;;;4.30;2.85;;;;;;;23.46;57.78;100161.31;4959578;28;20022;-71
2021/09/04 00:15:11;;;;;;;4.22;2.85;;;;;;;23.48;57.41;100167.31;4959842;28;20034;-71
2021/09/04 00:17:36;;;;;;;4.10;3.15;;;;;;;23.45;57.20;100173.13;4959470;28;20101;-71
2021/09/04 00:20:06;;;;;;;7.57;2.92;;;;;;;23.68;56.92;100155.00;4959125;28;20055;-71
2021/09/04 00:22:36;;;;;;;4.32;2.10;;;;;;;23.72;58.38;100147.97;4977325;28;20091;-71
2021/09/04 00:25:02;;;;;;;3.00;2.58;;;;;;;23.62;57.90;100151.09;4959678;28;20113;-71
2021/09/04 00:27:30;;;;;;;3.70;2.80;;;;;;;23.60;58.37;100154.41;4959355;28;20026;-71
2021/09/04 00:29:56;;;;;;;3.40;2.75;;;;;;;23.59;58.15;100147.13;4959610;28;20087;-71
2021/09/04 00:32:26;;;;;;;3.97;2.75;;;;;;;23.56;58.15;100159.41;4959225;28;20027;-73
2021/09/04 00:34:54;;;;;;;3.13;2.85;;;;;;;23.47;58.70;100151.53;4959192;28;20039;-71
2021/09/04 00:37:25;;;;;;;5.03;2.45;;;;;;;23.31;59.64;100153.66;4976840;28;20031;-72
2021/09/04 00:39:55;;;;;;;4.03;2.30;;;;;;;23.27;59.65;100145.25;4959139;28;20500;-72
2021/09/04 00:42:21;;;;;;;3.53;2.97;;;;;;;23.33;58.33;100134.97;4959304;28;20030;-71
2021/09/04 00:44:52;;;;;;;4.40;2.58;;;;;;;23.32;59.09;100143.91;4958637;28;20375;-71
2021/09/04 00:47:23;;;;;;;3.42;2.85;;;;;;;23.34;59.19;100139.38;4959017;28;20042;-71
2021/09/04 00:49:49;;;;;;;4.38;2.60;;;;;;;23.21;58.71;100127.19;4958931;28;20031;-71
2021/09/04 00:52:18;;;;;;;2.97;2.45;;;;;;;23.29;59.33;100119.28;4959201;28;20093;-72
2021/09/04 00:54:47;;;;;;;4.10;2.70;;;;;;;23.20;59.00;100114.25;4958408;28;20516;-72
2021/09/04 00:57:13;;;;;;;2.97;2.65;;;;;;;23.32;58.83;100098.47;4958289;28;20034;-71
2021/09/04 00:59:42;;;;;;;4.55;3.28;;;;;;;23.26;59.12;100086.91;4958711;28;20049;-71
2021/09/04 01:02:09;;;;;;;4.93;2.72;;;;;;;23.01;60.07;100079.16;4958733;28;20037;-71
2021/09/04 01:04:40;;;;;;;4.95;3.25;;;;;;;22.92;60.94;100065.63;4975736;28;20056;-71
2021/09/04 01:07:11;;;;;;;4.45;2.88;;;;;;;22.96;60.54;100089.03;4958527;28;20031;-71
2021/09/04 01:09:42;;;;;;;3.53;3.22;;;;;;;22.97;60.31;100096.28;4958555;28;20041;-72
2021/09/04 01:12:13;;;;;;;4.63;3.20;;;;;;;22.92;60.47;100093.19;4959016;28;20128;-71
2021/09/04 01:14:44;;;;;;;3.15;2.90;;;;;;;22.89;60.39;100091.25;4958449;28;20027;-71
2021/09/04 01:17:12;;;;;;;6.50;3.05;;;;;;;22.86;61.33;100073.06;4958388;28;20038;-72
2021/09/04 01:19:45;;;;;;;3.97;3.35;;;;;;;22.92;60.66;100088.31;4957975;28;20081;-72
2021/09/04 01:22:16;;;;;;;;;;;;;;;22.95;60.87;100095.91;4958929;28;20065;-72
2021/09/04 01:24:47;;;;;;;4.72;3.50;;;;;;;22.97;60.13;100098.31;4958185;28;19915;-71
2021/09/04 01:27:17;;;;;;;4.65;3.35;;;;;;;22.91;60.36;100097.28;4957966;28;20035;-72
2021/09/04 01:29:47;;;;;;;4.80;3.10;;;;;;;22.85;60.87;100094.19;4958152;28;20110;-71
2021/09/04 01:32:15;;;;;;;4.22;3.28;;;;;;;22.83;61.34;100093.81;4958118;28;20030;-72
2021/09/04 01:34:43;;;;;;;4.63;2.80;;;;;;;22.80;61.45;100085.41;4958125;28;20493;-73
2021/09/04 01:37:11;;;;;;;4.40;2.95;;;;;;;22.79;61.09;100073.25;4958282;28;20037;-72
2021/09/04 01:39:41;;;;;;;3.60;3.30;;;;;;;22.75;61.10;100089.59;4957985;28;20042;-72
2021/09/04 01:42:10;;;;;;;4.40;3.25;;;;;;;22.75;61.22;100084.72;4957959;28;20482;-72
2021/09/04 01:44:38;;;;;;;4.25;3.10;;;;;;;22.75;61.14;100084.72;4957864;28;20034;-72
2021/09/04 01:47:07;;;;;;;6.35;3.55;;;;;;;22.82;61.68;100078.03;4957822;28;20030;-71
2021/09/04 01:49:41;;;;;;;4.05;3.28;;;;;;;22.79;61.02;100087.44;4958149;28;20481;-72
2021/09/04 01:52:18;;;;;;;5.70;3.17;;;;;;;22.80;61.22;100088.22;4957827;28;20042;-73
2021/09/04 01:54:52;;;;;;;4.03;3.28;;;;;;;22.84;61.68;100086.88;4957796;28;20031;-73
2021/09/04 01:57:23;;;;;;;3.22;2.95;;;;;;;22.80;61.05;100085.41;4957703;28;20091;-71
2021/09/04 01:59:53;;;;;;;3.55;3.03;;;;;;;22.75;61.03;100064.09;4957696;28;20030;-71
2021/09/04 02:02:22;;;;;;;3.13;2.92;;;;;;;22.72;61.05;100070.63;4958116;28;20103;-71
2021/09/04 02:04:50;;;;;;;3.22;2.88;;;;;;;22.76;60.85;100068.50;4957918;28;20042;-71
2021/09/04 02:07:23;;;;;;;4.78;3.08;;;;;;;22.69;61.03;100065.84;4957230;28;20027;-71
2021/09/04 02:09:50;;;;;;;4.80;3.28;;;;;;;22.67;61.63;100052.13;4958072;28;20023;-71
2021/09/04 02:12:19;;;;;;;3.03;2.72;;;;;;;22.66;61.20;100061.09;4957498;28;20034;-70
2021/09/04 02:14:47;;;;;;;4.82;2.97;;;;;;;22.67;61.22;100048.50;4957504;28;20125;-72
2021/09/04 02:17:17;;;;;;;24.92;14.60;;;;;;;22.69;61.20;100051.69;4957793;28;20081;-72
2021/09/04 02:19:43;;;;;;;65.45;38.03;;;;;;;22.68;61.97;100055.75;4974511;28;20055;-71
2021/09/04 02:22:13;;;;;;;47.63;30.35;;;;;;;22.62;61.34;100047.00;4957318;28;20077;-71
2021/09/04 02:24:39;;;;;;;39.90;28.05;;;;;;;22.69;60.91;100054.50;4957317;28;20041;-71
2021/09/04 02:27:05;;;;;;;29.52;23.13;;;;;;;22.65;61.21;100053.84;4957382;28;20118;-71
2021/09/04 02:29:31;;;;;;;16.75;13.23;;;;;;;22.65;61.40;100057.47;4953308;28;20062;-72
2021/09/04 02:32:02;;;;;;;11.77;9.60;;;;;;;22.72;61.00;100079.16;4957840;28;20430;-71
2021/09/04 02:34:28;;;;;;;8.68;6.65;;;;;;;22.63;61.10;100079.00;4974918;28;20102;-71
2021/09/04 02:36:56;;;;;;;8.30;7.47;;;;;;;22.57;61.37;100075.13;4957309;28;20122;-71
2021/09/04 02:39:27;;;;;;;10.50;9.40;;;;;;;22.56;61.05;100070.69;4957313;28;20553;-71
2021/09/04 02:41:55;;;;;;;9.73;8.25;;;;;;;22.48;61.58;100070.91;4957440;28;20037;-71
2021/09/04 02:44:28;;;;;;;9.98;6.30;;;;;;;22.54;61.50;100068.31;4957590;28;20105;-71
2021/09/04 02:46:58;;;;;;;5.80;4.05;;;;;;;22.53;61.35;100060.25;4974475;28;20475;-71
2021/09/04 02:49:24;;;;;;;7.57;5.03;;;;;;;22.53;61.06;100054.56;4957444;28;20034;-71
2021/09/04 02:51:52;;;;;;;5.57;4.70;;;;;;;22.48;61.33;100053.91;4956462;28;20406;-72
2021/09/04 02:54:23;;;;;;;7.95;7.15;;;;;;;22.64;61.18;100049.41;4957153;28;20030;-72
2021/09/04 02:56:52;;;;;;;5.45;4.95;;;;;;;22.71;60.82;100050.00;4957144;28;20093;-71
2021/09/04 02:59:20;;;;;;;4.72;4.32;;;;;;;22.62;60.89;100040.53;4957067;28;20058;-72
2021/09/04 03:01:48;;;;;;;5.90;4.32;;;;;;;22.66;60.60;100029.91;4957460;28;20100;-72
2021/09/04 03:04:16;;;;;;;6.93;5.30;;;;;;;22.62;60.46;100030.00;4956999;28;20138;-71
2021/09/04 03:06:45;;;;;;;10.00;5.70;;;;;;;22.51;60.91;100031.56;4956869;28;20035;-71
2021/09/04 03:09:13;;;;;;;6.63;5.97;;;;;;;22.47;60.90;100028.81;4956891;28;20029;-72
2021/09/04 03:11:46;;;;;;;8.15;5.57;;;;;;;22.62;60.42;100027.16;4957389;28;20038;-72
2021/09/04 03:14:11;;;;;;;;;;;;;;;22.53;60.77;100026.22;4957541;28;20478;-71
2021/09/04 03:16:39;;;;;;;6.70;6.00;;;;;;;22.48;60.92;100019.88;4956883;28;19909;-73
2021/09/04 03:19:05;;;;;;;7.22;6.53;;;;;;;22.42;60.89;100003.84;4957935;28;20105;-72
2021/09/04 03:21:35;;;;;;;5.65;5.10;;;;;;;22.38;61.29;99989.78;4960662;28;20043;-72
2021/09/04 03:24:03;;;;;;;5.65;5.15;;;;;;;22.39;61.56;99982.88;4960685;28;20042;-72
2021/09/04 03:26:32;;;;;;;6.05;4.90;;;;;;;22.32;62.05;99974.59;4960404;28;20034;-72
2021/09/04 03:28:57;;;;;;;6.00;4.22;;;;;;;22.35;61.04;99976.50;4960563;28;20031;-71
2021/09/04 03:31:23;;;;;;;5.40;4.57;;;;;;;22.33;61.18;99981.84;4960199;28;20126;-72
2021/09/04 03:33:51;;;;;;;6.10;5.18;;;;;;;22.38;61.67;99981.28;4961013;28;20038;-72
2021/09/04 03:36:21;;;;;;;4.65;4.05;;;;;;;22.38;60.61;99992.63;4960513;28;20023;-71
2021/09/04 03:38:51;;;;;;;5.07;4.57;;;;;;;22.40;61.17;99983.66;4960427;28;20034;-72
2021/09/04 03:41:22;;;;;;;8.05;4.38;;;;;;;22.35;60.44;99976.50;4960630;28;20027;-71
2021/09/04 03:43:52;;;;;;;6.50;5.88;;;;;;;22.26;60.79;99961.41;4960112;28;20035;-71
2021/09/04 03:46:18;;;;;;;18.30;6.68;;;;;;;22.26;61.11;99964.22;4960020;28;20027;-71
2021/09/04 03:48:43;;;;;;;6.90;6.20;;;;;;;22.26;61.36;99967.84;4959974;28;20078;-71
2021/09/04 03:51:11;;;;;;;11.48;6.20;;;;;;;22.30;60.57;99953.59;4960194;28;20070;-71
2021/09/04 03:53:39;;;;;;;6.28;5.65;;;;;;;22.32;60.76;99942.59;4959907;28;20045;-71
2021/09/04 03:56:10;;;;;;;6.47;5.60;;;;;;;22.31;60.43;99944.63;4959854;28;20057;-72
2021/09/04 03:58:38;;;;;;;6.53;5.10;;;;;;;22.31;60.46;99944.63;4960089;28;20043;-72
2021/09/04 04:01:08;;;;;;;7.50;5.05;;;;;;;22.26;61.09;99950.84;4959759;28;20475;-73
2021/09/04 04:03:36;;;;;;;5.68;4.53;;;;;;;22.40;60.99;99938.31;4959776;28;20533;-72
2021/09/04 04:06:06;;;;;;;4.60;4.20;;;;;;;22.24;60.49;99930.69;4960023;28;20053;-72
2021/09/04 04:08:34;;;;;;;5.28;4.00;;;;;;;22.32;60.92;99915.06;4959865;28;20429;-71
2021/09/04 04:11:11;;;;;;;7.43;4.25;;;;;;;22.33;61.06;99911.00;4960229;28;20081;-73
2021/09/04 04:13:40;;;;;;;5.63;3.90;;;;;;;22.31;61.36;99896.44;4959528;28;20059;-71
2021/09/04 04:16:08;;;;;;;4.10;3.17;;;;;;;22.29;60.88;99901.78;4959585;28;20031;-72
2021/09/04 04:18:35;;;;;;;6.30;3.75;;;;;;;22.29;61.27;99890.44;4943754;28;20035;-71
2021/09/04 04:21:02;;;;;;;5.20;3.38;;;;;;;22.24;60.93;99879.66;4958994;28;20121;-72
2021/09/04 04:23:30;;;;;;;8.75;3.75;;;;;;;22.25;61.84;99871.97;4959583;28;20474;-72
2021/09/04 04:26:04;;;;;;;7.85;3.08;;;;;;;22.23;60.92;99884.53;4959341;28;20500;-71
2021/09/04 04:28:35;;;;;;;3.50;3.20;;;;;;;22.23;61.06;99890.22;4959112;28;20082;-72
2021/09/04 04:31:02;;;;;;;3.47;3.17;;;;;;;22.22;61.35;99904.84;4959538;28;20042;-72
2021/09/04 04:33:30;;;;;;;3.47;2.80;;;;;;;22.22;61.28;99921.84;4959192;28;20026;-72
2021/09/04 04:35:59;;;;;;;4.50;3.28;;;;;;;22.28;61.19;99939.09;4959018;28;20034;-72
2021/09/04 04:38:27;;;;;;;40.58;29.50;;;;;;;22.23;62.33;99957.44;4959059;28;20050;-71
2021/09/04 04:40:55;;;;;;;55.13;40.97;;;;;;;22.19;61.43;99973.72;4959013;28;20034;-72
2021/09/04 04:43:23;;;;;;;49.47;34.13;;;;;;;22.17;61.57;99984.72;4959584;28;20470;-72
2021/09/04 04:45:52;;;;;;;28.33;22.30;;;;;;;22.28;61.13;100007.91;4959006;28;20030;-73
2021/09/04 04:48:20;;;;;;;13.93;7.80;;;;;;;22.22;61.32;100018.19;4959131;28;20027;-70
2021/09/04 04:50:46;;;;;;;8.43;5.85;;;;;;;22.18;61.46;100017.47;4959313;28;20034;-69
2021/09/04 04:53:14;;;;;;;7.07;5.15;;;;;;;22.18;61.99;100037.31;4959032;28;20045;-70
2021/09/04 04:55:42;;;;;;;9.98;3.97;;;;;;;22.22;61.83;100046.53;4958617;28;20031;-70
2021/09/04 04:58:09;;;;;;;7.53;3.95;;;;;;;22.21;61.79;100056.25;4958646;28;20030;-70
2021/09/04 05:00:41;;;;;;;7.75;4.00;;;;;;;22.17;61.27;100079.03;4958945;28;20122;-70
2021/09/04 05:03:09;;;;;;;4.50;3.70;;;;;;;22.26;60.97;100086.09;4958871;28;20367;-70
2021/09/04 05:05:38;;;;;;;5.60;4.40;;;;;;;22.24;61.45;100089.38;4958540;28;20090;-70
2021/09/04 05:08:07;;;;;;;5.18;3.70;;;;;;;21.94;62.77;100102.66;4958633;28;20417;-70
2021/09/04 05:10:35;;;;;;;6.07;3.97;;;;;;;22.03;62.23;100107.69;4976045;28;20035;-70
2021/09/04 05:13:01;;;;;;;5.95;4.28;;;;;;;21.87;62.63;100104.84;4958362;28;20134;-70
2021/09/04 05:15:29;;;;;;;8.35;4.82;;;;;;;21.91;62.58;100122.56;4958227;28;20118;-70
2021/09/04 05:17:58;;;;;;;7.32;4.18;;;;;;;21.91;62.00;100122.56;4958244;28;20518;-70
2021/09/04 05:20:27;;;;;;;10.88;5.00;;;;;;;21.95;62.03;100129.75;4957885;28;20061;-70
2021/09/04 05:22:52;;;;;;;5.50;4.15;;;;;;;22.08;60.90;100141.16;4958463;28;20019;-70
2021/09/04 05:25:20;;;;;;;7.40;5.28;;;;;;;22.02;60.12;100147.81;4958148;28;20466;-70
2021/09/04 05:27:49;;;;;;;7.88;5.10;;;;;;;22.19;60.62;100152.25;4958350;28;20053;-70
2021/09/04 05:30:17;;;;;;;11.13;5.50;;;;;;;22.18;58.37;100153.50;4975298;28;20039;-70
2021/09/04 05:32:48;;;;;;;8.25;5.13;;;;;;;22.28;56.89;100162.97;4942654;28;20112;-70
2021/09/04 05:35:16;;;;;;;5.70;4.10;;;;;;;22.39;58.21;100164.28;4958133;28;20030;-70
2021/09/04 05:37:47;;;;;;;5.55;4.53;;;;;;;22.38;55.91;100162.69;4958002;28;20035;-70
2021/09/04 05:40:15;;;;;;;6.40;4.25;;;;;;;22.49;56.45;100168.09;4958458;28;20034;-70
2021/09/04 05:42:45;;;;;;;6.32;4.22;;;;;;;22.53;55.67;100167.97;4957191;28;20023;-71
2021/09/04 05:45:11;;;;;;;5.38;4.53;;;;;;;22.58;55.16;100175.94;4958503;28;20474;-70
2021/09/04 05:47:42;;;;;;;7.85;5.03;;;;;;;22.84;55.50;100183.34;4957877;28;20058;-70
2021/09/04 05:50:11;;;;;;;7.13;4.82;;;;;;;22.83;55.36;100189.47;4957629;28;20075;-70
2021/09/04 05:52:39;;;;;;;5.70;4.55;;;;;;;22.75;53.71;100188.88;4957890;28;20089;-70
2021/09/04 05:55:05;;;;;;;4.65;3.90;;;;;;;22.79;53.41;100178.19;4957740;28;20155;-72
2021/09/04 05:57:33;;;;;;;4.07;3.67;;;;;;;22.82;53.91;100173.69;4957614;28;20135;-72
2021/09/04 06:00:01;;;;;;;4.80;3.97;;;;;;;22.86;53.73;100172.34;4957600;28;20034;-71
2021/09/04 06:02:27;;;;;;;6.18;4.50;;;;;;;22.93;53.31;100175.00;4957643;28;20042;-71
2021/09/04 06:04:55;;;;;;;6.32;4.05;;;;;;;22.98;53.07;100177.31;4957436;28;20026;-71
2021/09/04 06:07:23;;;;;;;7.40;4.60;;;;;;;22.92;53.24;100181.16;4957950;28;20037;-71
2021/09/04 06:09:51;;;;;;;4.65;4.18;;;;;;;22.97;53.13;100184.22;4957639;28;20041;-71
2021/09/04 06:12:21;;;;;;;6.55;5.00;;;;;;;23.07;53.14;100178.72;4957889;28;20023;-71
2021/09/04 06:14:49;;;;;;;5.47;4.38;;;;;;;23.09;53.37;100181.88;4957784;28;20508;-70
2021/09/04 06:17:18;;;;;;;6.70;4.40;;;;;;;23.13;53.41;100185.41;4974443;28;20484;-71
2021/09/04 06:19:50;;;;;;;8.38;4.75;;;;;;;23.25;52.78;100184.66;4957108;28;20505;-74
2021/09/04 06:22:18;;;;;;;7.13;5.03;;;;;;;23.29;52.64;100181.72;4957583;28;20113;-71
2021/09/04 06:24:45;;;;;;;7.45;4.72;;;;;;;23.31;52.92;100182.06;4957357;28;20062;-71
2021/09/04 06:27:16;;;;;;;7.38;5.00;;;;;;;23.31;52.78;100182.06;4957055;28;20026;-71
2021/09/04 06:29:42;;;;;;;6.60;4.97;;;;;;;23.45;52.33;100171.09;4957540;28;20045;-71
2021/09/04 06:32:10;;;;;;;8.70;5.00;;;;;;;23.58;51.85;100173.13;4957472;28;20389;-71
2021/09/04 06:34:36;;;;;;;5.65;4.88;;;;;;;23.69;51.83;100163.06;4957493;28;20486;-73
2021/09/04 06:37:02;;;;;;;7.22;4.72;;;;;;;23.62;51.50;100151.91;4957228;28;20031;-72
2021/09/04 06:39:33;;;;;;;8.90;4.90;;;;;;;23.77;51.47;100146.59;4957078;28;20034;-71
2021/09/04 06:42:03;;;;;;;7.45;5.30;;;;;;;23.83;51.73;100144.78;4957396;28;20117;-72
2021/09/04 06:44:34;;;;;;;6.55;4.55;;;;;;;23.95;50.93;100131.81;4957118;28;20474;-72
2021/09/04 06:47:02;;;;;;;8.85;5.35;;;;;;;24.03;50.12;100136.81;4956319;28;20386;-71
2021/09/04 06:49:28;;;;;;;6.97;5.60;;;;;;;23.87;50.77;100121.94;4956999;28;20031;-72
2021/09/04 06:51:59;;;;;;;7.03;4.97;;;;;;;23.75;50.95;100120.69;4957144;28;20082;-72
2021/09/04 06:54:30;;;;;;;6.10;5.32;;;;;;;23.72;51.13;100116.72;4976495;28;20086;-71
2021/09/04 06:57:00;;;;;;;8.75;7.22;;;;;;;24.11;50.95;100114.63;4961427;28;20034;-72
2021/09/04 06:59:30;;;;;;;5.82;5.07;;;;;;;24.68;49.36;100109.03;4960772;28;20086;-71
2021/09/04 07:01:58;;;;;;;5.80;5.05;;;;;;;25.13;48.21;100104.94;4960941;28;20038;-72
2021/09/04 07:04:24;;;;;;;6.00;4.75;;;;;;;25.33;47.96;100102.53;4960415;28;20062;-71
2021/09/04 07:06:51;;;;;;;5.68;4.70;;;;;;;25.70;47.00;100114.09;4960885;28;20077;-71
2021/09/04 07:09:20;;;;;;;10.00;4.57;;;;;;;26.06;46.14;100108.56;4978259;28;20035;-72
2021/09/04 07:11:50;;;;;;;5.13;4.45;;;;;;;26.21;45.70;100093.69;4960540;28;20031;-72
2021/09/04 07:14:20;;;;;;;5.50;4.05;;;;;;;26.70;44.97;100098.50;4960539;28;20042;-72
2021/09/04 07:16:48;;;;;;;5.32;4.07;;;;;;;27.07;43.85;100102.13;4960922;28;20448;-72
2021/09/04 07:19:19;;;;;;;5.03;4.30;;;;;;;27.38;43.65;100099.06;4977275;28;20054;-72
2021/09/04 07:21:45;;;;;;;6.18;4.75;;;;;;;26.93;44.53;100097.03;4960278;28;20027;-71
2021/09/04 07:24:15;;;;;;;5.57;4.20;;;;;;;27.17;44.52;100098.00;4960123;28;20086;-72
2021/09/04 07:26:43;;;;;;;6.13;3.92;;;;;;;27.24;44.58;100099.72;4960102;28;20027;-72
2021/09/04 07:29:11;;;;;;;5.53;4.03;;;;;;;26.90;44.91;100110.22;4977117;28;20474;-71
2021/09/04 07:31:37;;;;;;;7.30;4.03;;;;;;;27.56;44.39;100104.69;4960339;28;20385;-72
2021/09/04 07:34:03;;;;;;;6.57;4.50;;;;;;;27.68;43.32;100100.03;4960063;28;20030;-74
2021/09/04 07:36:32;;;;;;;5.05;4.10;;;;;;;28.05;42.59;100100.66;4960125;28;20085;-72
2021/09/04 07:39:00;;;;;;;4.20;3.55;;;;;;;27.59;43.91;100105.78;4960073;28;20090;-72
2021/09/04 07:41:28;;;;;;;6.25;3.38;;;;;;;28.29;42.15;100097.81;4959925;28;20096;-73
2021/09/04 07:43:59;;;;;;;3.90;3.38;;;;;;;29.04;40.92;100098.81;4960036;28;20035;-71
2021/09/04 07:46:27;;;;;;;5.43;3.40;;;;;;;28.86;41.92;100099.75;4960557;28;20035;-73
2021/09/04 07:48:57;;;;;;;5.82;3.75;;;;;;;29.19;41.01;100097.56;4960006;28;20030;-72
2021/09/04 07:51:28;;;;;;;6.47;3.88;;;;;;;30.06;39.50;100099.19;4960369;28;20034;-72
2021/09/04 07:53:56;;;;;;;3.60;2.70;;;;;;;29.28;40.96;100108.09;4959819;28;20046;-72
2021/09/04 07:56:27;;;;;;;5.88;4.00;;;;;;;29.22;41.47;100105.13;4960040;28;20498;-72
2021/09/04 07:58:56;;;;;;;7.28;4.75;;;;;;;29.61;40.31;100113.63;4960079;28;20386;-72
2021/09/04 08:01:23;;;;;;;7.45;3.70;;;;;;;29.28;41.18;100113.03;4959803;28;20030;-72
2021/09/04 08:03:52;;;;;;;5.25;3.50;;;;;;;29.30;41.08;100127.69;4959615;28;20116;-72
2021/09/04 08:06:25;;;;;;;5.22;3.20;;;;;;;28.94;42.20;100123.91;4959080;28;20089;-73
2021/09/04 08:08:53;;;;;;;4.22;2.70;;;;;;;28.95;42.08;100125.47;4976688;28;20031;-72
2021/09/04 08:11:21;;;;;;;6.18;2.60;;;;;;;28.94;42.82;100135.34;4959518;28;20085;-73
2021/09/04 08:13:49;;;;;;;6.88;2.38;;;;;;;29.04;42.26;100133.97;4959507;28;20383;-72
2021/09/04 08:16:15;;;;;;;3.17;2.40;;;;;;;29.60;41.52;100137.06;4959740;28;20038;-71
2021/09/04 08:18:43;;;;;;;6.68;2.55;;;;;;;29.59;41.51;100142.00;4959508;28;20033;-74
2021/09/04 08:21:14;;;;;;;4.75;2.60;;;;;;;29.18;42.36;100133.19;4957476;29;20043;-72
2021/09/04 08:23:42;;;;;;;3.17;2.40;;;;;;;29.21;43.01;100137.94;4957167;29;20478;-72
2021/09/04 08:26:10;;;;;;;2.83;2.20;;;;;;;29.89;40.67;100139.13;4957345;29;20031;-72
2021/09/04 08:28:38;;;;;;;8.43;3.50;;;;;;;29.37;41.86;100144.47;4939980;29;20034;-72
2021/09/04 08:31:03;;;;;;;7.90;3.15;;;;;;;29.49;41.65;100138.44;4940014;29;20034;-71
2021/09/04 08:33:29;;;;;;;3.13;2.33;;;;;;;29.31;42.15;100132.13;4940198;29;20027;-72
2021/09/04 08:35:57;;;;;;;3.10;2.40;;;;;;;29.91;40.82;100130.78;4940191;29;20122;-71
2021/09/04 08:38:28;;;;;;;8.85;3.42;;;;;;;29.70;41.26;100110.66;4940193;29;20399;-71
2021/09/04 08:40:58;;;;;;;5.05;3.67;;;;;;;28.90;42.27;100135.50;4940115;29;20035;-72
2021/09/04 08:43:26;;;;;;;6.10;3.50;;;;;;;29.38;41.69;100132.50;4940048;29;20398;-72
2021/09/04 08:45:57;;;;;;;6.18;3.20;;;;;;;29.56;41.21;100117.19;4940017;29;20458;-73
2021/09/04 08:48:25;;;;;;;5.50;3.15;;;;;;;29.95;39.83;100114.97;4956540;29;20123;-72
2021/09/04 08:50:52;;;;;;;6.43;3.85;;;;;;;29.65;40.66;100125.69;4957313;29;20050;-71
2021/09/04 08:53:21;;;;;;;4.30;2.88;;;;;;;29.56;40.49;100122.13;4939759;29;20126;-72
2021/09/04 08:55:49;;;;;;;4.15;2.67;;;;;;;29.44;41.09;100121.13;4939461;29;20031;-71
2021/09/04 08:58:21;;;;;;;2.28;2.08;;;;;;;29.46;41.01;100122.22;4939805;29;20198;-72
2021/09/04 09:00:49;;;;;;;3.45;2.33;;;;;;;30.07;39.92;100103.63;4939815;29;20035;-71
2021/09/04 09:03:28;;;;;;;2.90;2.42;;;;;;;29.95;39.76;100109.22;4939363;29;20475;-71
2021/09/04 09:05:55;;;;;;;2.78;2.00;;;;;;;30.13;39.12;100101.66;4939582;29;20118;-71
2021/09/04 09:08:27;;;;;;;4.65;2.30;;;;;;;31.09;37.58;100104.41;4938592;29;20034;-71
2021/09/04 09:10:59;;;;;;;5.30;3.10;;;;;;;31.32;37.15;100107.50;4939850;29;20135;-71
2021/09/04 09:13:30;;;;;;;;;;;;;;;31.67;36.33;100105.19;4940106;29;20035;-71
2021/09/04 09:15:56;;;;;;;2.58;2.38;;;;;;;30.96;38.02;100098.28;4938793;29;20239;-72
2021/09/04 09:18:27;;;;;;;3.08;2.03;;;;;;;30.51;38.78;100077.63;4939013;29;20023;-73
2021/09/04 09:21:02;;;;;;;4.28;2.25;;;;;;;30.01;39.35;100077.75;4955751;28;20112;-73
2021/09/04 09:23:29;;;;;;;4.20;2.15;;;;;;;30.04;39.62;100076.72;4958343;28;20478;-73
2021/09/04 09:26:07;;;;;;;3.75;2.47;;;;;;;30.63;38.57;100067.88;4958132;28;20037;-71
2021/09/04 09:28:35;;;;;;;5.30;2.40;;;;;;;31.86;35.97;100065.34;4975303;28;20037;-72
2021/09/04 09:31:01;;;;;;;3.38;2.28;;;;;;;32.10;35.51;100064.94;4958285;28;20031;-72
2021/09/04 09:33:28;;;;;;;2.30;2.10;;;;;;;32.15;35.42;100069.16;4975050;28;20061;-72
2021/09/04 09:35:55;;;;;;;2.25;2.05;;;;;;;31.47;36.85;100068.69;4975071;28;20034;-72
2021/09/04 09:38:26;;;;;;;4.35;2.08;;;;;;;31.03;37.71;100064.13;4974871;28;20037;-72
2021/09/04 09:40:55;;;;;;;4.90;1.80;;;;;;;30.51;38.50;100055.44;4958444;28;20121;-73
2021/09/04 09:43:29;;;;;;;3.30;1.75;;;;;;;30.99;37.54;100051.28;4974803;28;20031;-72
2021/09/04 09:46:00;;;;;;;2.95;2.05;;;;;;;30.74;37.70;100056.53;4957689;28;20049;-72
2021/09/04 09:48:31;;;;;;;5.75;2.25;;;;;;;30.61;38.13;100044.59;4974821;28;20161;-72
2021/09/04 09:51:01;;;;;;;5.70;2.13;;;;;;;30.99;37.52;100045.53;4957666;28;20027;-72
2021/09/04 09:53:30;;;;;;;3.30;2.40;;;;;;;30.10;38.94;100043.19;4957555;28;20492;-72
2021/09/04 09:55:59;;;;;;;3.58;1.98;;;;;;;29.57;40.13;100044.28;4957804;28;20080;-72
2021/09/04 09:58:28;;;;;;;2.78;1.98;;;;;;;29.27;41.16;100034.91;4957569;28;20039;-72
2021/09/04 10:01:01;;;;;;;2.47;1.95;;;;;;;28.94;41.70;100026.53;4957469;28;20049;-72
2021/09/04 10:03:34;;;;;;;1.67;1.50;;;;;;;28.36;43.46;100028.00;4957573;28;20050;-72
2021/09/04 10:06:01;;;;;;;2.95;1.73;;;;;;;29.20;41.53;100024.63;4957980;28;20489;-72
2021/09/04 10:08:27;;;;;;;2.40;1.38;;;;;;;29.87;39.85;100027.75;4957499;28;20026;-72
2021/09/04 10:10:59;;;;;;;2.80;1.80;;;;;;;29.87;39.88;100006.88;4957218;28;20037;-73
2021/09/04 10:13:27;;;;;;;4.93;1.60;;;;;;;30.22;39.52;100024.84;4975029;28;20023;-73
2021/09/04 10:15:55;;;;;;;3.38;1.50;;;;;;;30.45;38.29;100031.63;4957439;28;20034;-74
2021/09/04 10:18:31;;;;;;;2.75;1.80;;;;;;;30.77;37.76;100026.78;4974730;28;20027;-72
2021/09/04 10:21:13;;;;;;;3.67;1.65;;;;;;;31.03;37.72;100032.53;4956912;28;20054;-73
2021/09/04 10:23:47;;;;;;;1.88;1.70;;;;;;;30.85;37.78;100032.09;4957937;28;20054;-71
2021/09/04 10:26:38;;;;;;;3.92;1.58;;;;;;;31.16;37.55;100040.75;4957597;28;20039;-73
2021/09/04 10:29:17;;;;;;;2.13;1.55;;;;;;;30.70;38.22;100018.63;4957171;28;20121;-73
2021/09/04 10:31:54;;;;;;;2.15;1.25;;;;;;;30.51;38.23;100051.78;4957216;28;20035;-73
2021/09/04 10:34:36;;;;;;;4.60;1.52;;;;;;;30.50;38.09;100038.72;4957667;28;20081;-73
2021/09/04 10:37:13;;;;;;;1.70;1.30;;;;;;;30.15;39.13;100035.94;4957244;28;20030;-73
2021/09/04 10:39:59;;;;;;;3.33;1.33;;;;;;;30.25;38.97;100032.44;4956488;28;20058;-72
2021/09/04 10:42:30;;;;;;;2.25;1.35;;;;;;;30.75;37.59;100032.25;4957414;28;20027;-78
2021/09/04 10:45:08;;;;;;;2.50;1.73;;;;;;;31.14;37.24;100028.16;4956974;28;20026;-71
2021/09/04 10:48:12;;;;;;;4.60;1.50;;;;;;;30.84;37.18;100027.63;4956822;28;20122;-73
2021/09/04 10:50:41;;;;;;;1.95;1.73;;;;;;;30.15;38.90;100025.28;4957023;28;20490;-73
2021/09/04 10:53:09;;;;;;;1.80;1.45;;;;;;;30.02;39.11;100016.22;4957718;28;20366;-72
2021/09/04 10:55:39;;;;;;;2.88;2.13;;;;;;;29.61;40.39;100013.28;4941531;28;20114;-70
2021/09/04 10:58:14;;;;;;;2.45;1.75;;;;;;;29.72;40.29;100018.41;4956907;28;20049;-70
2021/09/04 11:00:43;;;;;;;1.63;1.42;;;;;;;29.46;40.49;100010.47;4957470;28;20031;-70
2021/09/04 11:03:20;;;;;;;2.33;1.45;;;;;;;29.75;39.80;100009.59;4956785;28;20045;-69
2021/09/04 11:05:52;;;;;;;2.00;1.50;;;;;;;29.32;40.49;100004.75;4956781;28;20066;-71
2021/09/04 11:08:23;;;;;;;2.08;1.45;;;;;;;29.19;40.83;100008.75;4957476;28;20033;-71
2021/09/04 11:11:06;;;;;;;1.73;1.63;;;;;;;29.38;40.67;100005.63;4957158;28;20031;-70
2021/09/04 11:13:39;;;;;;;2.92;1.50;;;;;;;29.84;39.55;100005.03;4957555;28;20034;-71
2021/09/04 11:16:50;;;;;;;2.80;1.55;;;;;;;29.74;39.26;100001.50;4956887;28;20035;-72
2021/09/04 11:19:31;;;;;;;1.95;1.58;;;;;;;29.37;40.01;100013.44;4861460;29;20105;-71
2021/09/04 11:22:07;;;;;;;2.03;1.20;;;;;;;29.29;39.94;100005.75;4861225;29;20061;-72
2021/09/04 11:24:41;;;;;;;3.60;1.77;;;;;;;29.12;41.17;100009.13;4943669;28;20049;-71
2021/09/04 11:27:14;;;;;;;6.85;2.45;;;;;;;29.19;43.03;100008.75;4956659;28;20039;-72
2021/09/04 11:29:51;;;;;;;3.55;2.65;;;;;;;29.34;43.23;100019.38;4957621;28;20031;-69
2021/09/04 11:32:22;;;;;;;3.83;2.20;;;;;;;29.74;42.26;100013.75;4956691;28;20038;-70
2021/09/04 11:34:53;;;;;;;3.63;2.00;;;;;;;29.58;42.77;100002.06;4974083;28;20023;-73
2021/09/04 11:37:34;;;;;;;2.97;2.05;;;;;;;30.17;42.10;99999.75;4957223;28;20122;-72